ADDS METAR Data INFO
IDs: Format: Raw Decoded Include TAF

Data at: 2114 UTC 22 Oct 2017

KSDB 222053Z AUTO 08020G26KT 10SM CLR 23/M05 A3035 RMK AO2 PK WND 08031/1958 SLP233 T02331050 58007
KSDB 221953Z AUTO 07021G31KT 10SM CLR 23/M05 A3036 RMK AO2 PK WND 07031/1952 SLP236 T02281050
KSDB 221853Z AUTO 07019G25KT 10SM CLR 22/M07 A3038 RMK AO2 SLP246 T02171067
KSDB 221753Z AUTO 07017G24KT 10SM CLR 21/M07 A3038 RMK AO2 SLP245 T02111067 10211 20144 50010
KSDB 221653Z AUTO 07012G19KT 10SM CLR 20/M06 A3038 RMK AO2 SLP247 T02001056
KSDB 221553Z AUTO 07013G22KT 10SM CLR 19/M07 A3036 RMK AO2 SLP243 T01891067
KSDB 221453Z AUTO 06012G20KT 10SM CLR 17/M07 A3034 RMK AO2 SLP240 T01671072 53009
KSDB 221253Z AUTO 05012KT 10SM CLR 15/M08 A3032 RMK AO2 SLP231 T01501078
KSDB 221153Z AUTO 06013KT 10SM CLR 16/M07 A3031 RMK AO2 SLP224 T01561072 10156 20128 55003
KSDB 221053Z AUTO 06014KT 10SM CLR 16/M07 A3031 RMK AO2 SLP220 T01561067
KSDB 220953Z AUTO 05012KT 10SM CLR 14/M06 A3032 RMK AO2 SLP226 T01441061
KSDB 220853Z AUTO 05014KT 10SM CLR 14/M05 A3032 RMK AO2 SLP226 T01391050 55000
KSDB 220753Z AUTO 04011KT 10SM CLR 13/M03 A3032 RMK AO2 SLP228 T01331033 401940044
KSDB 220653Z AUTO 04011KT 10SM CLR 14/M03 A3032 RMK AO2 SLP229 T01391028
KSDB 220553Z AUTO 03011KT 10SM CLR 13/M03 A3032 RMK AO2 SLP233 T01331028 10156 20122 53012
KSDB 220453Z AUTO 03013KT 10SM CLR 13/M02 A3030 RMK AO2 SLP229 T01281017
KSDB 220353Z AUTO 04012KT 10SM CLR 13/M02 A3028 RMK AO2 SLP226 T01331022
KSDB 220253Z AUTO 02006KT 10SM CLR 12/M01 A3028 RMK AO2 SLP229 T01221011 53016
KSDB 220153Z AUTO 01004KT 10SM CLR 12/M01 A3026 RMK AO2 SLP224 T01221006
KSDB 220053Z AUTO 36005KT 10SM CLR 14/00 A3024 RMK AO2 SLP218 T01390000
KSDB 212353Z AUTO 35010KT 10SM CLR 16/01 A3023 RMK AO2 SLP208 T01610006 10194 20139 53009
KSDB 212253Z AUTO VRB05KT 10SM CLR 18/00 A3022 RMK AO2 SLP203 T01830000
KSDB 212153Z AUTO 07015G26KT 10SM CLR 19/M04 A3019 RMK AO2 PK WND 08026/2147 SLP193 T01891044
KSDB 212053Z AUTO 06012G21KT 10SM CLR 19/M04 A3020 RMK AO2 SLP193 T01891039 58003
KSDB 211953Z AUTO 07014G23KT 10SM CLR 18/M03 A3021 RMK AO2 SLP200 T01781028
KSDB 211853Z AUTO 04010G18KT 10SM CLR 17/M01 A3022 RMK AO2 SLP202 T01721011
KSDB 211753Z AUTO 02008G17KT 10SM CLR 14/M02 A3021 RMK AO2 SLP203 T01391017 10139 20044 51023
KSDB 211653Z AUTO 01007KT 10SM CLR 12/M02 A3020 RMK AO2 PK WND 35028/1556 SLP203 T01221022
KSDB 211553Z AUTO 36015G27KT 10SM CLR 08/M01 A3017 RMK AO2 PK WND 36027/1530 SLP198 T00831006
KSDB 211453Z AUTO 36011G23KT 10SM CLR 08/M03 A3013 RMK AO2 PK WND 34032/1409 SLP184 T00781028 51013
KSDB 211353Z AUTO 34022KT 10SM CLR 06/M01 A3012 RMK AO2 PK WND 35028/1300 SLP183 T00611006
KSDB 211253Z AUTO 36017G29KT 10SM FEW003 05/02 A3012 RMK AO2 PK WND 34034/1234 SLP182 T00500022
KSDB 211211Z AUTO 05010G21KT 10SM FEW004 04/02 A3010 RMK AO2 T00440022
KSDB 211153Z AUTO 36010G31KT 10SM CLR 06/00 A3009 RMK AO2 PK WND 34049/1055 WSHFT 1045 SLP168 T00610000 10078 20050 55013
KSDB 211053Z AUTO 34039G48KT 10SM SCT008 06/01 A3005 RMK AO2 PK WND 33049/0958 PRESFR SLP155 T00560011
KSDB 211034Z AUTO 08008G18KT 040V120 10SM BKN008 05/03 A3010 RMK AO2 PK WND 33049/0958 T00500028
KSDB 211023Z AUTO 36014G42KT 10SM FEW008 05/02 A3009 RMK AO2 PK WND 33049/0958 PRESRR T00500022
KSDB 210953Z AUTO 34041G48KT 10SM CLR 05/02 A3005 RMK AO2 PK WND 34049/0928 SLP154 T00500022
KSDB 210917Z AUTO 34039G46KT 10SM FEW008 SCT017 06/03 A3008 RMK AO2 PK WND 34046/0917 PRESFR T00560028